Time;durP1;ratioP1;P1;durP2;ratioP2;P2;SDS_P1;SDS_P2;PMS_P1;PMS_P2;Temp;Humidity;BMP_temperature;BMP_pressure;BME280_temperature;BME280_humidity;BME280_pressure;Samples;Min_cycle;Max_cycle;Signal;HPM_P1;HPM_P2
2024/01/20 00:00:12;;;;;;;12.88;9.10;;;-1.40;99.90;;;;;;5046513;28;20577;-65
2024/01/20 00:02:40;;;;;;;15.90;10.50;;;-1.50;99.90;;;;;;5037304;28;20237;-65
2024/01/20 00:05:07;;;;;;;10.02;8.05;;;-1.60;99.90;;;;;;5032099;28;20294;-65
2024/01/20 00:07:34;;;;;;;12.98;10.00;;;-1.70;99.90;;;;;;5044054;28;20211;-65
2024/01/20 00:10:01;;;;;;;14.65;9.63;;;-1.70;99.90;;;;;;5047498;28;20236;-65
2024/01/20 00:12:30;;;;;;;12.43;9.80;;;-1.80;99.90;;;;;;5033359;28;20281;-65
2024/01/20 00:14:57;;;;;;;17.75;10.77;;;-1.90;99.90;;;;;;5043517;28;20237;-64
2024/01/20 00:17:23;;;;;;;12.95;9.55;;;-2.00;99.90;;;;;;5040260;28;20249;-65
2024/01/20 00:19:52;;;;;;;15.90;9.50;;;-2.00;99.90;;;;;;5033567;28;20564;-65
2024/01/20 00:22:19;;;;;;;11.30;10.10;;;-2.10;99.90;;;;;;5038897;28;20254;-65
2024/01/20 00:24:45;;;;;;;16.20;10.27;;;-2.20;99.90;;;;;;5036201;28;20207;-65
2024/01/20 00:27:12;;;;;;;11.38;8.85;;;-2.30;99.90;;;;;;5046934;28;20211;-65
2024/01/20 00:29:39;;;;;;;11.48;9.30;;;-2.40;99.90;;;;;;5034089;28;20226;-64
2024/01/20 00:32:06;;;;;;;12.70;9.40;;;-2.40;99.90;;;;;;5038505;28;20770;-64
2024/01/20 00:34:33;;;;;;;10.93;7.82;;;-2.50;99.90;;;;;;5047350;28;20209;-64
2024/01/20 00:37:03;;;;;;;13.82;12.45;;;-2.50;99.90;;;;;;5044365;28;20665;-64
2024/01/20 00:39:30;;;;;;;11.90;9.40;;;-2.60;99.90;;;;;;5042423;28;20199;-65
2024/01/20 00:41:57;;;;;;;17.10;11.55;;;-2.70;99.90;;;;;;5032025;28;20234;-64
2024/01/20 00:44:23;;;;;;;17.55;9.48;;;-2.80;99.90;;;;;;5032543;28;20211;-64
2024/01/20 00:46:50;;;;;;;10.93;8.77;;;-2.80;99.90;;;;;;5033177;28;20206;-64
2024/01/20 00:49:17;;;;;;;13.63;9.55;;;-2.90;99.90;;;;;;5033153;28;20669;-65
2024/01/20 00:51:44;;;;;;;10.77;8.48;;;-2.90;99.90;;;;;;5032741;28;20290;-64
2024/01/20 00:54:12;;;;;;;15.80;8.57;;;-3.00;99.90;;;;;;5032853;28;20209;-65
2024/01/20 00:56:39;;;;;;;16.45;9.27;;;-3.10;99.90;;;;;;5032859;28;20302;-64
2024/01/20 00:59:06;;;;;;;13.90;9.82;;;-3.20;99.90;;;;;;5032859;28;20199;-64
2024/01/20 01:01:33;;;;;;;13.93;8.65;;;-3.30;99.90;;;;;;5032422;28;20203;-65
2024/01/20 01:04:00;;;;;;;14.38;11.07;;;-3.30;99.90;;;;;;5039623;28;20217;-64
2024/01/20 01:06:27;;;;;;;12.23;8.65;;;-3.40;99.90;;;;;;5033097;28;20303;-64
2024/01/20 01:08:54;;;;;;;13.55;10.30;;;-3.50;99.90;;;;;;5033114;28;20218;-64
2024/01/20 01:11:22;;;;;;;14.15;10.65;;;-3.50;99.90;;;;;;5033021;28;20576;-64
2024/01/20 01:13:49;;;;;;;9.52;8.00;;;-3.60;99.90;;;;;;5033063;28;20246;-64
2024/01/20 01:16:15;;;;;;;12.15;8.60;;;-3.70;99.90;;;;;;5032697;28;20286;-65
2024/01/20 01:18:42;;;;;;;9.30;6.93;;;-3.80;99.90;;;;;;5033780;28;20294;-64
2024/01/20 01:21:09;;;;;;;11.43;9.07;;;-3.80;99.90;;;;;;5033575;28;20211;-64
2024/01/20 01:23:36;;;;;;;11.13;9.07;;;-3.90;99.90;;;;;;5033283;28;20318;-65
2024/01/20 01:26:03;;;;;;;14.68;9.45;;;-4.00;99.90;;;;;;5033397;28;20265;-64
2024/01/20 01:28:31;;;;;;;12.77;8.10;;;-4.10;99.90;;;;;;5033178;28;20211;-64
2024/01/20 01:30:58;;;;;;;12.13;7.40;;;-4.20;99.90;;;;;;5033334;28;20233;-64
2024/01/20 01:33:25;;;;;;;15.00;9.85;;;-4.30;99.90;;;;;;5033122;28;20760;-64
2024/01/20 01:35:51;;;;;;;10.63;7.03;;;-4.30;99.90;;;;;;5033300;28;20269;-64
2024/01/20 01:38:18;;;;;;;12.02;7.63;;;-4.40;99.90;;;;;;5033168;28;20684;-64
2024/01/20 01:40:45;;;;;;;14.80;7.80;;;-4.50;99.90;;;;;;5033088;28;20203;-64
2024/01/20 01:43:12;;;;;;;7.60;6.38;;;-4.50;99.90;;;;;;5033020;28;20223;-64
2024/01/20 01:45:40;;;;;;;12.23;7.32;;;-4.60;99.90;;;;;;5033287;28;20302;-64
2024/01/20 01:48:07;;;;;;;12.02;6.80;;;-4.70;99.90;;;;;;5033039;28;20213;-64
2024/01/20 01:50:34;;;;;;;9.40;7.97;;;-4.70;99.90;;;;;;5032687;28;20242;-64
2024/01/20 01:53:01;;;;;;;10.43;7.13;;;-4.80;99.90;;;;;;5032751;28;20241;-64
2024/01/20 01:55:28;;;;;;;15.20;7.45;;;-4.80;99.90;;;;;;5032883;28;20203;-64
2024/01/20 01:57:56;;;;;;;7.30;6.30;;;-4.90;99.90;;;;;;5032756;28;20213;-64
2024/01/20 02:00:23;;;;;;;11.95;8.02;;;-5.00;99.90;;;;;;5032811;28;20301;-64
2024/01/20 02:02:51;;;;;;;11.63;8.55;;;-5.00;99.90;;;;;;5032923;28;20716;-64
2024/01/20 02:05:18;;;;;;;13.07;7.82;;;-5.10;99.90;;;;;;5032837;28;20213;-64
2024/01/20 02:07:48;;;;;;;8.20;5.70;;;-5.20;99.90;;;;;;5032708;28;20213;-64
2024/01/20 02:10:17;;;;;;;9.80;9.00;;;-5.20;99.90;;;;;;5032189;28;20226;-64
2024/01/20 02:12:45;;;;;;;6.75;5.55;;;-5.30;99.90;;;;;;5032334;28;20231;-64
2024/01/20 02:15:13;;;;;;;10.90;6.75;;;-5.30;99.90;;;;;;5032514;28;20294;-64
2024/01/20 02:17:51;;;;;;;13.73;6.82;;;-5.30;99.90;;;;;;5031230;28;20294;-64
2024/01/20 02:20:18;;;;;;;10.95;6.28;;;-5.40;99.90;;;;;;5031128;28;20209;-64
2024/01/20 02:22:46;;;;;;;5.70;5.20;;;-5.40;99.90;;;;;;5032240;28;20321;-64
2024/01/20 02:25:13;;;;;;;6.28;5.68;;;-5.40;99.90;;;;;;5032222;28;20206;-64
2024/01/20 02:27:40;;;;;;;7.60;5.43;;;-5.50;99.90;;;;;;5032182;28;20207;-64
2024/01/20 02:30:08;;;;;;;8.73;4.95;;;-5.50;99.90;;;;;;5031634;28;20314;-64
2024/01/20 02:32:34;;;;;;;7.63;6.10;;;-5.50;99.90;;;;;;5031732;28;20235;-64
2024/01/20 02:35:01;;;;;;;14.63;8.43;;;-5.50;99.90;;;;;;5031821;28;20584;-64
2024/01/20 02:37:28;;;;;;;6.85;4.68;;;-5.60;99.90;;;;;;5031273;28;20245;-64
2024/01/20 02:39:57;;;;;;;10.07;6.13;;;-5.70;99.90;;;;;;5031261;28;20293;-64
2024/01/20 02:42:24;;;;;;;6.88;5.55;;;-5.70;99.90;;;;;;5031876;28;20227;-64
2024/01/20 02:44:51;;;;;;;8.98;6.03;;;-5.70;99.90;;;;;;5031979;28;20213;-64
2024/01/20 02:47:18;;;;;;;6.97;6.28;;;-5.80;99.90;;;;;;5031715;28;20213;-63
2024/01/20 02:49:45;;;;;;;9.63;7.55;;;-5.80;99.90;;;;;;5031392;28;20241;-64
2024/01/20 02:52:11;;;;;;;7.47;5.90;;;-5.80;99.90;;;;;;5031235;28;20237;-64
2024/01/20 02:54:38;;;;;;;6.82;6.05;;;-5.80;99.90;;;;;;5031739;28;20305;-64
2024/01/20 02:57:07;;;;;;;8.45;5.57;;;-5.90;99.90;;;;;;5031708;28;20210;-64
2024/01/20 02:59:33;;;;;;;8.95;6.45;;;-6.00;99.90;;;;;;5031695;28;20211;-64
2024/01/20 03:02:01;;;;;;;11.55;6.90;;;-6.00;99.90;;;;;;5031134;28;20317;-64
2024/01/20 03:04:29;;;;;;;11.23;6.10;;;-6.00;99.90;;;;;;5031582;28;20243;-64
2024/01/20 03:06:55;;;;;;;5.57;5.07;;;-6.10;99.90;;;;;;5031765;28;20207;-64
2024/01/20 03:09:22;;;;;;;18.40;7.20;;;-6.10;99.90;;;;;;5031682;28;20297;-64
2024/01/20 03:11:49;;;;;;;12.25;8.32;;;-6.10;99.90;;;;;;5031054;28;20779;-64
2024/01/20 03:14:17;;;;;;;19.33;11.32;;;-6.00;99.90;;;;;;5031461;28;20203;-64
2024/01/20 03:16:44;;;;;;;15.30;10.70;;;-6.00;99.90;;;;;;5031073;28;20211;-64
2024/01/20 03:19:11;;;;;;;13.38;10.07;;;-5.90;99.90;;;;;;5031619;28;20211;-64
2024/01/20 03:21:38;;;;;;;13.18;9.60;;;-5.90;99.90;;;;;;5031087;28;20225;-64
2024/01/20 03:24:05;;;;;;;9.02;7.18;;;-5.90;99.90;;;;;;5031155;28;20211;-64
2024/01/20 03:26:32;;;;;;;11.52;7.93;;;-5.90;99.90;;;;;;5031350;28;20222;-64
2024/01/20 03:28:59;;;;;;;16.83;8.50;;;-5.90;99.90;;;;;;5031196;28;20294;-64
2024/01/20 03:31:27;;;;;;;12.48;9.68;;;-5.80;99.90;;;;;;5030440;28;20244;-64
2024/01/20 03:33:54;;;;;;;13.75;8.00;;;-5.80;99.90;;;;;;5030873;28;20611;-64
2024/01/20 03:36:21;;;;;;;13.90;8.38;;;-5.70;99.90;;;;;;5031035;28;20207;-64
2024/01/20 03:38:48;;;;;;;19.13;12.23;;;-5.60;99.90;;;;;;5031625;28;20298;-64
2024/01/20 03:41:16;;;;;;;12.85;9.32;;;-5.60;99.90;;;;;;5034982;28;20608;-64
2024/01/20 03:43:43;;;;;;;11.15;8.98;;;-5.50;99.90;;;;;;5034930;28;20227;-64
2024/01/20 03:46:09;;;;;;;14.32;9.63;;;-5.40;99.90;;;;;;5035080;28;20214;-64
2024/01/20 03:48:39;;;;;;;10.50;6.80;;;-5.40;99.90;;;;;;5035171;28;20660;-64
2024/01/20 03:51:06;;;;;;;13.18;7.90;;;-5.40;99.90;;;;;;5034823;28;20241;-64
2024/01/20 03:53:32;;;;;;;13.70;8.85;;;-5.40;99.90;;;;;;5034510;28;20238;-64
2024/01/20 03:55:59;;;;;;;14.57;8.32;;;-5.30;99.90;;;;;;5034840;28;20207;-64
2024/01/20 03:58:26;;;;;;;12.35;8.07;;;-5.30;99.90;;;;;;5034691;28;20676;-64
2024/01/20 04:00:53;;;;;;;12.40;8.00;;;-5.30;99.90;;;;;;5034827;28;20202;-64
2024/01/20 04:03:20;;;;;;;12.50;8.15;;;-5.20;99.90;;;;;;5034837;28;20806;-64
2024/01/20 04:05:48;;;;;;;11.45;8.93;;;-5.20;99.90;;;;;;5033422;28;20294;-64
2024/01/20 04:08:15;;;;;;;12.88;9.90;;;-5.10;99.90;;;;;;5034539;28;20301;-64
2024/01/20 04:10:42;;;;;;;14.13;8.80;;;-5.10;99.90;;;;;;5034470;28;20306;-64
2024/01/20 04:13:09;;;;;;;20.00;10.63;;;-5.00;99.90;;;;;;5034550;28;20231;-64
2024/01/20 04:15:36;;;;;;;11.32;8.90;;;-4.90;99.90;;;;;;5034440;28;20298;-64
2024/01/20 04:18:03;;;;;;;13.25;8.63;;;-4.90;99.90;;;;;;5034587;28;20207;-64
2024/01/20 04:20:29;;;;;;;18.15;11.15;;;-4.90;99.90;;;;;;5034363;28;20203;-64
2024/01/20 04:22:58;;;;;;;14.73;10.38;;;-4.80;99.90;;;;;;5034161;28;20717;-64
2024/01/20 04:25:24;;;;;;;11.60;10.10;;;-4.80;99.90;;;;;;5034398;28;20217;-64
2024/01/20 04:27:51;;;;;;;10.25;8.73;;;-4.80;99.90;;;;;;5034200;28;20595;-64
2024/01/20 04:30:18;;;;;;;12.63;8.65;;;-4.70;99.90;;;;;;5033873;28;20233;-64
2024/01/20 04:32:45;;;;;;;14.00;9.73;;;-4.70;99.90;;;;;;5034330;28;20611;-64
2024/01/20 04:35:12;;;;;;;11.75;9.43;;;-4.60;99.90;;;;;;5034311;28;20305;-64
2024/01/20 04:37:39;;;;;;;11.75;9.02;;;-4.60;99.90;;;;;;5034197;28;20306;-64
2024/01/20 04:40:08;;;;;;;14.88;9.77;;;-4.50;99.90;;;;;;5033897;28;20211;-64
2024/01/20 04:42:35;;;;;;;15.20;10.65;;;-4.50;99.90;;;;;;5033875;28;20226;-64
2024/01/20 04:45:04;;;;;;;17.52;11.07;;;-4.50;99.90;;;;;;5033925;28;20218;-64
2024/01/20 04:47:31;;;;;;;13.75;10.35;;;-4.50;99.90;;;;;;5034068;28;20319;-64
2024/01/20 04:49:58;;;;;;;16.75;9.73;;;-4.40;99.90;;;;;;5033224;28;20203;-64
2024/01/20 04:52:25;;;;;;;14.82;10.57;;;-4.40;99.90;;;;;;5033039;28;20249;-64
2024/01/20 04:54:53;;;;;;;17.95;10.85;;;-4.30;99.90;;;;;;5033782;28;20321;-64
2024/01/20 04:57:21;;;;;;;14.23;10.82;;;-4.30;99.90;;;;;;5033555;28;20203;-63
2024/01/20 04:59:48;;;;;;;19.52;11.20;;;-4.30;99.90;;;;;;5033352;28;20290;-64
2024/01/20 05:02:15;;;;;;;18.65;11.55;;;-4.20;99.90;;;;;;5033667;28;20231;-64
2024/01/20 05:04:42;;;;;;;11.20;9.93;;;-4.20;99.90;;;;;;5033795;28;20215;-64
2024/01/20 05:07:09;;;;;;;12.90;10.50;;;-4.10;99.90;;;;;;5033758;28;20207;-64
2024/01/20 05:09:36;;;;;;;15.80;10.25;;;-4.00;99.90;;;;;;5033527;28;20302;-64
2024/01/20 05:12:03;;;;;;;14.55;8.32;;;-4.00;99.90;;;;;;5033150;28;20234;-64
2024/01/20 05:14:31;;;;;;;13.90;10.60;;;-4.00;99.90;;;;;;5033614;28;20218;-64
2024/01/20 05:16:58;;;;;;;12.07;9.48;;;-3.90;99.90;;;;;;5033632;28;20217;-64
2024/01/20 05:19:25;;;;;;;17.45;10.02;;;-3.90;99.90;;;;;;5033429;28;20214;-64
2024/01/20 05:21:52;;;;;;;17.15;10.13;;;-3.80;99.90;;;;;;5033264;28;20228;-64
2024/01/20 05:24:19;;;;;;;16.58;12.60;;;-3.80;99.90;;;;;;5033354;28;20681;-64
2024/01/20 05:26:45;;;;;;;8.90;7.70;;;-3.70;99.90;;;;;;5033658;28;20222;-64
2024/01/20 05:29:12;;;;;;;10.45;9.45;;;-3.70;99.90;;;;;;5033332;28;20222;-64
2024/01/20 05:31:40;;;;;;;14.43;9.77;;;-3.70;99.90;;;;;;5032861;28;20233;-64
2024/01/20 05:34:07;;;;;;;15.05;11.10;;;-3.60;99.90;;;;;;5033248;28;20297;-64
2024/01/20 05:36:35;;;;;;;11.75;10.75;;;-3.60;99.90;;;;;;5033346;28;20297;-64
2024/01/20 05:39:01;;;;;;;17.13;10.65;;;-3.50;99.90;;;;;;5033055;28;20242;-64
2024/01/20 05:41:28;;;;;;;11.77;9.73;;;-3.50;99.90;;;;;;5033100;28;20249;-64
2024/01/20 05:43:55;;;;;;;12.48;8.73;;;-3.40;99.90;;;;;;5032964;28;20230;-64
2024/01/20 05:46:22;;;;;;;12.95;11.27;;;-3.40;99.90;;;;;;5033067;28;20262;-64
2024/01/20 05:48:50;;;;;;;16.77;10.77;;;-3.30;99.90;;;;;;5033162;28;20299;-64
2024/01/20 05:51:17;;;;;;;12.00;9.57;;;-3.30;99.90;;;;;;5032586;28;20245;-64
2024/01/20 05:53:44;;;;;;;15.98;10.13;;;-3.20;99.90;;;;;;5032780;28;20241;-64
2024/01/20 05:56:10;;;;;;;21.13;11.30;;;-3.10;99.90;;;;;;5033071;28;20207;-64
2024/01/20 05:58:37;;;;;;;12.63;11.32;;;-3.00;99.90;;;;;;5032776;28;20211;-64
2024/01/20 06:01:04;;;;;;;16.50;11.50;;;-2.90;99.90;;;;;;5032798;28;20210;-64
2024/01/20 06:03:31;;;;;;;17.35;12.23;;;-2.80;99.90;;;;;;5032463;28;20314;-64
2024/01/20 06:05:59;;;;;;;15.38;11.80;;;-2.80;99.90;;;;;;5032808;28;20261;-64
2024/01/20 06:08:26;;;;;;;14.07;10.90;;;-2.70;99.90;;;;;;5032883;28;20211;-63
2024/01/20 06:10:53;;;;;;;15.60;13.55;;;-2.70;99.90;;;;;;5032463;28;20223;-64
2024/01/20 06:13:20;;;;;;;12.50;11.18;;;-2.60;99.90;;;;;;5032673;28;20707;-64
2024/01/20 06:15:47;;;;;;;14.50;10.30;;;-2.60;99.90;;;;;;5032536;28;20208;-64
2024/01/20 06:18:13;;;;;;;14.82;11.23;;;-2.60;99.90;;;;;;5032712;28;20213;-64
2024/01/20 06:20:40;;;;;;;16.70;11.70;;;-2.50;99.90;;;;;;5032186;28;20207;-64
2024/01/20 06:23:08;;;;;;;14.93;12.13;;;-2.50;99.90;;;;;;5032551;28;20227;-64
2024/01/20 06:25:35;;;;;;;17.02;12.52;;;-2.50;99.90;;;;;;5032405;28;20591;-64
2024/01/20 06:28:03;;;;;;;16.23;14.35;;;-2.40;99.90;;;;;;5032404;28;20203;-64
2024/01/20 06:30:30;;;;;;;16.98;13.57;;;-2.40;99.90;;;;;;5032085;28;20261;-64
2024/01/20 06:32:57;;;;;;;17.23;11.70;;;-2.30;99.90;;;;;;5031824;28;20233;-63
2024/01/20 06:35:24;;;;;;;17.08;12.48;;;-2.30;99.90;;;;;;5032142;28;20213;-63
2024/01/20 06:37:51;;;;;;;17.40;12.38;;;-2.30;99.90;;;;;;5032124;28;20210;-64
2024/01/20 06:40:19;;;;;;;16.27;12.30;;;-2.30;99.90;;;;;;5031670;28;20210;-64
2024/01/20 06:42:46;;;;;;;17.95;12.57;;;-2.30;99.90;;;;;;5031787;28;20309;-63
2024/01/20 06:45:13;;;;;;;14.50;12.80;;;-2.20;99.90;;;;;;5031886;28;20211;-64
2024/01/20 06:47:40;;;;;;;16.00;13.05;;;-2.20;99.90;;;;;;5031181;28;20293;-64
2024/01/20 06:50:08;;;;;;;17.85;12.75;;;-2.20;99.90;;;;;;5029302;28;20694;-64
2024/01/20 06:52:35;;;;;;;15.65;12.52;;;-2.20;99.90;;;;;;5030912;28;20614;-64
2024/01/20 06:55:02;;;;;;;15.10;11.60;;;-2.10;99.90;;;;;;5031494;28;20213;-63
2024/01/20 06:57:30;;;;;;;18.75;11.32;;;-2.10;99.90;;;;;;5031386;28;20257;-64
2024/01/20 06:59:57;;;;;;;14.88;13.30;;;-2.10;99.90;;;;;;5031183;28;20216;-64
2024/01/20 07:02:24;;;;;;;20.95;15.40;;;-2.10;99.90;;;;;;5030766;28;20223;-64
2024/01/20 07:04:51;;;;;;;20.55;13.25;;;-2.10;99.90;;;;;;5029688;28;20211;-64
2024/01/20 07:07:18;;;;;;;21.00;15.60;;;-2.10;99.90;;;;;;5031344;28;20298;-64
2024/01/20 07:09:44;;;;;;;18.33;14.85;;;-2.10;99.90;;;;;;5030954;28;20217;-64
2024/01/20 07:12:12;;;;;;;23.08;13.43;;;-2.10;99.90;;;;;;5030430;28;20227;-63
2024/01/20 07:14:42;;;;;;;19.67;14.10;;;-2.10;99.90;;;;;;5033187;28;20730;-63
2024/01/20 07:17:08;;;;;;;18.90;13.45;;;-2.10;99.90;;;;;;5035747;28;20273;-63
2024/01/20 07:19:35;;;;;;;16.55;13.15;;;-2.00;99.90;;;;;;5035206;28;20225;-64
2024/01/20 07:22:02;;;;;;;16.13;13.63;;;-2.00;99.90;;;;;;5034766;28;20219;-64
2024/01/20 07:24:29;;;;;;;12.95;10.90;;;-2.00;99.90;;;;;;5034302;28;20232;-63
2024/01/20 07:26:56;;;;;;;13.55;10.20;;;-2.00;99.90;;;;;;5028197;28;20592;-64
2024/01/20 07:29:24;;;;;;;14.00;10.75;;;-2.10;99.90;;;;;;5034846;28;20294;-64
2024/01/20 07:31:52;;;;;;;17.60;11.90;;;-2.00;99.90;;;;;;5035173;28;20222;-64
2024/01/20 07:34:19;;;;;;;14.68;10.20;;;-2.00;99.90;;;;;;5035433;28;20565;-64
2024/01/20 07:36:46;;;;;;;16.00;14.40;;;-2.00;99.90;;;;;;5034969;28;20738;-63
2024/01/20 07:39:13;;;;;;;16.88;12.60;;;-2.00;99.90;;;;;;5034601;28;20697;-64
2024/01/20 07:41:39;;;;;;;20.25;13.60;;;-2.00;99.90;;;;;;5034876;28;20209;-64
2024/01/20 07:44:06;;;;;;;15.52;13.27;;;-2.00;99.90;;;;;;5034597;28;20742;-64
2024/01/20 07:46:33;;;;;;;17.02;12.30;;;-1.90;99.90;;;;;;5035053;28;20221;-64
2024/01/20 07:49:01;;;;;;;14.25;11.55;;;-1.90;99.90;;;;;;5034780;28;20218;-64
2024/01/20 07:51:28;;;;;;;15.90;13.15;;;-1.90;99.90;;;;;;5034470;28;20234;-63
2024/01/20 07:53:55;;;;;;;16.67;10.70;;;-1.90;99.90;;;;;;5034148;28;20266;-64
2024/01/20 07:56:22;;;;;;;18.02;12.80;;;-1.90;99.90;;;;;;5034598;28;20698;-64
2024/01/20 07:58:49;;;;;;;16.40;11.95;;;-1.90;99.90;;;;;;5034883;28;20214;-64
2024/01/20 08:01:17;;;;;;;21.38;13.65;;;-1.90;99.90;;;;;;5033775;28;20727;-64
2024/01/20 08:03:44;;;;;;;19.75;13.48;;;-1.90;99.90;;;;;;5034812;28;20234;-64
2024/01/20 08:06:13;;;;;;;15.98;12.48;;;-1.90;99.90;;;;;;5034305;28;20673;-64
2024/01/20 08:08:40;;;;;;;16.55;13.02;;;-1.90;99.90;;;;;;5034117;28;20203;-64
2024/01/20 08:11:06;;;;;;;18.50;11.80;;;-1.80;99.90;;;;;;5033851;28;20207;-64
2024/01/20 08:13:33;;;;;;;14.43;12.93;;;-1.80;99.90;;;;;;5034229;28;20244;-64
2024/01/20 08:16:00;;;;;;;27.35;20.70;;;-1.80;99.90;;;;;;5034481;28;20213;-64
2024/01/20 08:18:27;;;;;;;68.05;48.88;;;-1.70;99.90;;;;;;5033679;28;20207;-63
2024/01/20 08:20:54;;;;;;;19.38;17.55;;;-1.70;99.90;;;;;;5032368;28;20230;-64
2024/01/20 08:23:22;;;;;;;22.80;15.23;;;-1.80;99.90;;;;;;5033714;28;20314;-64
2024/01/20 08:25:49;;;;;;;21.13;17.63;;;-1.70;99.90;;;;;;5033896;28;20210;-64
2024/01/20 08:28:15;;;;;;;18.73;13.80;;;-1.70;99.90;;;;;;5034096;28;20378;-64
2024/01/20 08:30:42;;;;;;;17.48;13.27;;;-1.70;99.90;;;;;;5033942;28;20298;-64
2024/01/20 08:33:09;;;;;;;16.15;12.98;;;-1.70;99.90;;;;;;5033981;28;20227;-64
2024/01/20 08:35:36;;;;;;;19.00;12.73;;;-1.70;99.90;;;;;;5033847;28;20210;-64
2024/01/20 08:38:03;;;;;;;22.55;13.43;;;-1.70;99.90;;;;;;5033323;28;20206;-64
2024/01/20 08:40:31;;;;;;;15.52;12.57;;;-1.70;99.90;;;;;;5032366;28;20211;-63
2024/01/20 08:42:58;;;;;;;22.85;13.88;;;-1.70;99.90;;;;;;5033315;28;20663;-63
2024/01/20 08:45:25;;;;;;;20.13;13.68;;;-1.70;99.90;;;;;;5033032;28;20203;-63
2024/01/20 08:47:50;;;;;;;18.33;13.88;;;-1.60;99.90;;;;;;5033712;28;20210;-64
2024/01/20 08:50:18;;;;;;;19.60;13.10;;;-1.60;99.90;;;;;;5033483;28;20290;-63
2024/01/20 08:52:45;;;;;;;13.57;11.93;;;-1.60;99.90;;;;;;5033219;28;20493;-64
2024/01/20 08:55:12;;;;;;;18.17;13.35;;;-1.60;99.90;;;;;;5033508;28;20237;-64
2024/01/20 08:57:40;;;;;;;19.23;13.27;;;-1.60;99.90;;;;;;5033571;28;20207;-64
2024/01/20 09:00:09;;;;;;;18.17;14.70;;;-1.60;99.90;;;;;;5033394;28;20652;-64
2024/01/20 09:02:36;;;;;;;19.23;13.35;;;-1.60;99.90;;;;;;5033151;28;20296;-64
2024/01/20 09:05:03;;;;;;;18.27;13.60;;;-1.60;99.90;;;;;;5033239;28;20207;-64
2024/01/20 09:07:30;;;;;;;18.92;13.82;;;-1.60;99.90;;;;;;5033353;28;20207;-64
2024/01/20 09:09:57;;;;;;;15.60;13.93;;;-1.60;99.90;;;;;;5032890;28;20207;-64
2024/01/20 09:12:23;;;;;;;17.85;13.25;;;-1.50;99.90;;;;;;5033227;28;20237;-63
2024/01/20 09:14:52;;;;;;;16.02;12.75;;;-1.50;99.90;;;;;;5033225;28;20207;-64
2024/01/20 09:17:19;;;;;;;18.50;12.82;;;-1.50;99.90;;;;;;5033574;28;20261;-64
2024/01/20 09:19:46;;;;;;;16.50;13.10;;;-1.40;99.90;;;;;;5030502;28;20239;-64
2024/01/20 09:22:13;;;;;;;19.25;13.55;;;-1.40;99.90;;;;;;5033520;28;20715;-64
2024/01/20 09:24:40;;;;;;;17.27;12.70;;;-1.40;99.90;;;;;;5033354;28;20203;-64
2024/01/20 09:27:06;;;;;;;20.20;13.88;;;-1.40;99.90;;;;;;5032702;28;20203;-64
2024/01/20 09:29:33;;;;;;;20.10;11.77;;;-1.30;99.90;;;;;;5029859;28;20299;-63
2024/01/20 09:32:01;;;;;;;16.77;13.70;;;-1.40;99.90;;;;;;5025133;28;20614;-64
2024/01/20 09:34:28;;;;;;;15.30;12.95;;;-1.40;99.90;;;;;;5029477;28;20291;-64
2024/01/20 09:36:55;;;;;;;17.13;13.02;;;-1.50;99.90;;;;;;5025087;28;20704;-63
2024/01/20 09:39:22;;;;;;;14.70;11.68;;;-1.40;99.90;;;;;;5028534;28;20298;-63
2024/01/20 09:41:50;;;;;;;17.05;12.85;;;-1.40;99.90;;;;;;5027868;28;20203;-64
2024/01/20 09:44:17;;;;;;;16.83;13.23;;;-1.30;99.90;;;;;;5030881;28;20301;-64
2024/01/20 09:46:44;;;;;;;15.85;11.52;;;-1.30;99.90;;;;;;5030899;28;20199;-64
2024/01/20 09:49:12;;;;;;;18.05;12.90;;;-1.20;99.90;;;;;;5034070;28;20230;-64
2024/01/20 09:51:46;;;;;;;12.43;11.10;;;-1.20;99.90;;;;;;5031591;28;20291;-64
2024/01/20 09:54:15;;;;;;;14.43;12.98;;;-1.20;99.90;;;;;;5031860;28;20203;-63
2024/01/20 09:56:42;;;;;;;15.57;12.13;;;-1.20;99.90;;;;;;5031897;28;20229;-64
2024/01/20 09:59:10;;;;;;;18.42;13.20;;;-1.10;99.90;;;;;;5031222;28;20206;-64
2024/01/20 10:01:38;;;;;;;14.02;11.80;;;-1.00;99.90;;;;;;5021548;28;20208;-64
2024/01/20 10:04:06;;;;;;;12.68;11.30;;;-1.00;99.90;;;;;;5026217;28;20309;-64
2024/01/20 10:06:34;;;;;;;16.00;11.75;;;-1.00;99.90;;;;;;5024235;28;20203;-64
2024/01/20 10:09:01;;;;;;;15.23;12.52;;;-1.00;99.90;;;;;;5029410;28;20217;-64
2024/01/20 10:11:29;;;;;;;17.30;12.40;;;-1.00;99.90;;;;;;5026546;28;20199;-64
2024/01/20 10:13:56;;;;;;;17.85;12.63;;;-1.00;99.90;;;;;;5028619;28;20239;-64
2024/01/20 10:16:23;;;;;;;13.10;11.70;;;-1.00;99.90;;;;;;5027881;28;20203;-64
2024/01/20 10:18:50;;;;;;;12.88;11.32;;;-1.00;99.90;;;;;;5026685;28;20199;-64
2024/01/20 10:21:17;;;;;;;20.70;13.18;;;-1.00;99.90;;;;;;5028985;28;20210;-64
2024/01/20 10:23:46;;;;;;;20.45;16.20;;;-1.00;99.90;;;;;;5031002;28;20720;-64
2024/01/20 10:26:13;;;;;;;14.30;12.07;;;-1.00;99.90;;;;;;5031490;28;20207;-64
2024/01/20 10:28:40;;;;;;;15.48;12.95;;;-1.00;99.90;;;;;;5030999;28;20658;-63
2024/01/20 10:31:07;;;;;;;15.25;13.75;;;-1.00;99.90;;;;;;5023543;28;20230;-64
2024/01/20 10:33:35;;;;;;;13.18;11.70;;;-0.90;99.90;;;;;;5030505;28;20234;-64
2024/01/20 10:36:03;;;;;;;15.10;12.85;;;-0.90;99.90;;;;;;5030499;28;20207;-64
2024/01/20 10:38:33;;;;;;;14.77;11.63;;;-0.90;99.90;;;;;;5030921;28;20207;-64
2024/01/20 10:41:03;;;;;;;16.13;13.07;;;-0.90;99.90;;;;;;5030329;28;20211;-64
2024/01/20 10:43:39;;;;;;;15.93;10.88;;;-0.80;99.90;;;;;;5031097;28;20229;-64
2024/01/20 10:46:14;;;;;;;15.18;12.32;;;-0.70;99.90;;;;;;5030484;28;20758;-64
2024/01/20 10:48:47;;;;;;;21.38;13.32;;;-0.70;99.90;;;;;;5029941;28;20317;-64
2024/01/20 10:51:18;;;;;;;15.98;13.27;;;-0.70;99.90;;;;;;5029972;28;20298;-64
2024/01/20 10:53:47;;;;;;;18.13;14.25;;;-0.70;99.90;;;;;;5030635;28;20254;-64
2024/01/20 10:56:17;;;;;;;20.52;12.73;;;-0.70;99.90;;;;;;5031440;28;20294;-64
2024/01/20 10:59:09;;;;;;;14.40;11.98;;;-0.70;99.90;;;;;;5030775;28;20684;-64
2024/01/20 11:01:36;;;;;;;15.10;12.15;;;-0.60;99.90;;;;;;5031057;28;20673;-64
2024/01/20 11:04:03;;;;;;;18.40;13.20;;;-0.70;99.90;;;;;;5028781;28;20203;-65
2024/01/20 11:06:31;;;;;;;14.20;12.80;;;-0.70;99.90;;;;;;5031127;28;20207;-64
2024/01/20 11:09:01;;;;;;;14.77;12.40;;;-0.70;99.90;;;;;;5030382;28;20203;-64
2024/01/20 11:11:34;;;;;;;16.33;12.65;;;-0.70;99.90;;;;;;5028961;28;20583;-63
2024/01/20 11:14:01;;;;;;;20.15;13.63;;;-0.60;99.90;;;;;;5030079;28;20226;-64
2024/01/20 11:16:31;;;;;;;19.98;13.25;;;-0.50;99.90;;;;;;5030233;28;20238;-63
2024/01/20 11:19:07;;;;;;;20.15;13.43;;;-0.50;99.90;;;;;;5030338;28;20214;-64
2024/01/20 11:21:34;;;;;;;16.98;12.82;;;-0.50;99.90;;;;;;5030620;28;20210;-64
2024/01/20 11:24:02;;;;;;;19.13;13.90;;;-0.50;99.90;;;;;;5030106;28;20207;-64
2024/01/20 11:26:34;;;;;;;23.85;12.52;;;-0.50;99.90;;;;;;5030510;28;20661;-64
2024/01/20 11:29:03;;;;;;;22.38;15.40;;;-0.40;99.90;;;;;;5030095;28;20265;-64
2024/01/20 11:31:31;;;;;;;18.48;14.80;;;-0.50;99.90;;;;;;5030224;28;20603;-64
2024/01/20 11:33:59;;;;;;;19.35;13.77;;;-0.50;99.90;;;;;;5030137;28;20227;-64
2024/01/20 11:36:29;;;;;;;19.88;13.07;;;-0.50;99.90;;;;;;5030476;28;20643;-64
2024/01/20 11:38:57;;;;;;;19.38;12.80;;;-0.50;99.90;;;;;;5020925;28;20218;-64
2024/01/20 11:41:24;;;;;;;18.30;13.52;;;-0.40;99.90;;;;;;5029702;28;20213;-64
2024/01/20 11:43:52;;;;;;;20.15;13.63;;;-0.40;99.90;;;;;;5030301;28;20229;-64
2024/01/20 11:46:19;;;;;;;19.95;14.23;;;-0.40;99.90;;;;;;5030287;28;20209;-64
2024/01/20 11:48:47;;;;;;;15.13;12.25;;;-0.50;99.90;;;;;;5030375;28;20647;-64
2024/01/20 11:51:14;;;;;;;17.90;12.48;;;-0.50;99.90;;;;;;5029476;28;20590;-65
2024/01/20 11:53:42;;;;;;;20.55;14.93;;;-0.50;99.90;;;;;;5029943;28;20226;-64
2024/01/20 11:56:08;;;;;;;22.23;14.00;;;-0.50;99.90;;;;;;5029664;28;20582;-64
2024/01/20 11:58:35;;;;;;;20.27;14.75;;;-0.40;99.90;;;;;;5030242;28;20199;-64
2024/01/20 12:01:04;;;;;;;21.02;13.35;;;-0.40;99.90;;;;;;5032340;28;20241;-64
2024/01/20 12:03:30;;;;;;;19.13;12.95;;;-0.40;99.90;;;;;;5033620;28;20306;-64
2024/01/20 12:06:03;;;;;;;18.15;13.23;;;-0.40;99.90;;;;;;5033852;28;20214;-65
2024/01/20 12:08:30;;;;;;;16.63;12.40;;;-0.40;99.90;;;;;;5021224;28;20218;-65
2024/01/20 12:10:57;;;;;;;17.88;14.77;;;-0.50;99.90;;;;;;5033409;28;20653;-64
2024/01/20 12:13:25;;;;;;;19.60;13.73;;;-0.60;99.90;;;;;;5034235;28;20317;-64
2024/01/20 12:15:52;;;;;;;19.98;13.00;;;-0.50;99.90;;;;;;5033294;28;20218;-64
2024/01/20 12:18:20;;;;;;;22.17;13.82;;;-0.50;99.90;;;;;;5033706;28;20290;-63
2024/01/20 12:20:48;;;;;;;14.73;11.85;;;-0.40;99.90;;;;;;5033101;28;20294;-64
2024/01/20 12:23:19;;;;;;;13.45;11.68;;;-0.30;99.90;;;;;;5033493;28;20258;-63
2024/01/20 12:25:46;;;;;;;17.30;13.73;;;-0.30;99.90;;;;;;5033500;28;20207;-64
2024/01/20 12:28:13;;;;;;;15.40;12.48;;;-0.30;99.90;;;;;;5033625;28;20230;-63
2024/01/20 12:30:40;;;;;;;19.70;14.63;;;-0.20;99.90;;;;;;5033270;28;20665;-63